<?xml version="1.0" encoding="UTF-8" standalone="no" ?>
<gpx xmlns="http://www.topografix.com/GPX/1/1" xmlns:xsi="http://www.w3.org/2001/XMLSchema-instance" xsi:schemaLocation="http://www.topografix.com/GPX/1/1 http://www.topografix.com/GPX/1/1/gpx.xsd" version="1.1" creator="VisuGPX - https://www.visugpx.com">
  <metadata>
    <name>Les îles éoliennes 02</name>
    <desc><![CDATA[le retour des îles les volcans les dauphins
la balade à Palerme]]></desc>
  </metadata>
  <trk>
    <name><![CDATA[Tracé actuel: 22 AVR 2018 09:16]]></name>
    <trkseg>
      <trkpt lat="38.18482" lon="13.1048">
        <ele>-91.67</ele>
        <time>2018-04-22T07:16:49Z</time>
      </trkpt>
      <trkpt lat="38.18497" lon="13.10496">
        <ele>-53.22</ele>
        <time>2018-04-22T07:17:17Z</time>
      </trkpt>
      <trkpt lat="38.18499" lon="13.10495">
        <ele>-14.28</ele>
        <time>2018-04-22T07:17:40Z</time>
      </trkpt>
      <trkpt lat="38.18488" lon="13.10509">
        <ele>-2.27</ele>
        <time>2018-04-22T07:17:59Z</time>
      </trkpt>
      <trkpt lat="38.18485" lon="13.10513">
        <ele>-1.3</ele>
        <time>2018-04-22T07:18:03Z</time>
      </trkpt>
      <trkpt lat="38.18459" lon="13.10537">
        <ele>3.02</ele>
        <time>2018-04-22T07:18:26Z</time>
      </trkpt>
      <trkpt lat="38.18426" lon="13.10534">
        <ele>4.46</ele>
        <time>2018-04-22T07:18:48Z</time>
      </trkpt>
      <trkpt lat="38.18399" lon="13.10516">
        <ele>8.79</ele>
        <time>2018-04-22T07:19:17Z</time>
      </trkpt>
      <trkpt lat="38.18382" lon="13.10509">
        <ele>8.31</ele>
        <time>2018-04-22T07:19:37Z</time>
      </trkpt>
      <trkpt lat="38.18393" lon="13.10513">
        <ele>7.83</ele>
        <time>2018-04-22T07:19:59Z</time>
      </trkpt>
      <trkpt lat="38.18386" lon="13.1051">
        <ele>6.39</ele>
        <time>2018-04-22T07:20:22Z</time>
      </trkpt>
      <trkpt lat="38.18387" lon="13.10509">
        <ele>6.87</ele>
        <time>2018-04-22T07:20:58Z</time>
      </trkpt>
      <trkpt lat="38.18389" lon="13.10509">
        <ele>3.98</ele>
        <time>2018-04-22T07:21:29Z</time>
      </trkpt>
      <trkpt lat="38.1839" lon="13.1051">
        <ele>3.5</ele>
        <time>2018-04-22T07:22:01Z</time>
      </trkpt>
      <trkpt lat="38.18392" lon="13.10511">
        <ele>3.5</ele>
        <time>2018-04-22T07:22:24Z</time>
      </trkpt>
      <trkpt lat="38.184" lon="13.10516">
        <ele>3.98</ele>
        <time>2018-04-22T07:22:29Z</time>
      </trkpt>
      <trkpt lat="38.18445" lon="13.1056">
        <ele>4.46</ele>
        <time>2018-04-22T07:22:44Z</time>
      </trkpt>
      <trkpt lat="38.18484" lon="13.1068">
        <ele>4.94</ele>
        <time>2018-04-22T07:23:02Z</time>
      </trkpt>
      <trkpt lat="38.18504" lon="13.10754">
        <ele>4.94</ele>
        <time>2018-04-22T07:23:12Z</time>
      </trkpt>
      <trkpt lat="38.18476" lon="13.10862">
        <ele>5.42</ele>
        <time>2018-04-22T07:23:29Z</time>
      </trkpt>
      <trkpt lat="38.18463" lon="13.1091">
        <ele>5.42</ele>
        <time>2018-04-22T07:23:36Z</time>
      </trkpt>
      <trkpt lat="38.18414" lon="13.10942">
        <ele>6.39</ele>
        <time>2018-04-22T07:23:47Z</time>
      </trkpt>
      <trkpt lat="38.18393" lon="13.10917">
        <ele>6.87</ele>
        <time>2018-04-22T07:23:53Z</time>
      </trkpt>
      <trkpt lat="38.18362" lon="13.10832">
        <ele>7.35</ele>
        <time>2018-04-22T07:24:10Z</time>
      </trkpt>
      <trkpt lat="38.18324" lon="13.10707">
        <ele>6.39</ele>
        <time>2018-04-22T07:24:27Z</time>
      </trkpt>
      <trkpt lat="38.18247" lon="13.10473">
        <ele>6.87</ele>
        <time>2018-04-22T07:24:52Z</time>
      </trkpt>
      <trkpt lat="38.18155" lon="13.10199">
        <ele>5.91</ele>
        <time>2018-04-22T07:25:18Z</time>
      </trkpt>
      <trkpt lat="38.18058" lon="13.09912">
        <ele>4.94</ele>
        <time>2018-04-22T07:25:42Z</time>
      </trkpt>
      <trkpt lat="38.17973" lon="13.09661">
        <ele>3.98</ele>
        <time>2018-04-22T07:26:02Z</time>
      </trkpt>
      <trkpt lat="38.17873" lon="13.09363">
        <ele>2.54</ele>
        <time>2018-04-22T07:26:24Z</time>
      </trkpt>
      <trkpt lat="38.17796" lon="13.09114">
        <ele>3.02</ele>
        <time>2018-04-22T07:26:44Z</time>
      </trkpt>
      <trkpt lat="38.17729" lon="13.08934">
        <ele>3.5</ele>
        <time>2018-04-22T07:27:02Z</time>
      </trkpt>
      <trkpt lat="38.17481" lon="13.08746">
        <ele>3.98</ele>
        <time>2018-04-22T07:27:43Z</time>
      </trkpt>
      <trkpt lat="38.17458" lon="13.08773">
        <ele>3.98</ele>
        <time>2018-04-22T07:27:49Z</time>
      </trkpt>
      <trkpt lat="38.17438" lon="13.08861">
        <ele>2.54</ele>
        <time>2018-04-22T07:28:03Z</time>
      </trkpt>
      <trkpt lat="38.1743" lon="13.0891">
        <ele>2.54</ele>
        <time>2018-04-22T07:28:08Z</time>
      </trkpt>
      <trkpt lat="38.17548" lon="13.09062">
        <ele>-3.23</ele>
        <time>2018-04-22T07:28:12Z</time>
      </trkpt>
      <trkpt lat="38.17663" lon="13.09338">
        <ele>25.13</ele>
        <time>2018-04-22T07:28:17Z</time>
      </trkpt>
      <trkpt lat="38.17799" lon="13.09725">
        <ele>28.02</ele>
        <time>2018-04-22T07:28:25Z</time>
      </trkpt>
      <trkpt lat="38.179" lon="13.10023">
        <ele>24.17</ele>
        <time>2018-04-22T07:28:29Z</time>
      </trkpt>
      <trkpt lat="38.18047" lon="13.10495">
        <ele>24.17</ele>
        <time>2018-04-22T07:28:35Z</time>
      </trkpt>
      <trkpt lat="38.18223" lon="13.11079">
        <ele>24.65</ele>
        <time>2018-04-22T07:28:42Z</time>
      </trkpt>
      <trkpt lat="40.8584" lon="11.57565">
        <ele>11789.75</ele>
        <time>2018-04-22T07:55:58Z</time>
      </trkpt>
      <trkpt lat="40.90572" lon="11.53603">
        <ele>11788.79</ele>
        <time>2018-04-22T07:56:25Z</time>
      </trkpt>
      <trkpt lat="40.94246" lon="11.5052">
        <ele>11789.75</ele>
        <time>2018-04-22T07:56:46Z</time>
      </trkpt>
      <trkpt lat="40.97923" lon="11.47425">
        <ele>11792.15</ele>
        <time>2018-04-22T07:57:07Z</time>
      </trkpt>
      <trkpt lat="41.01256" lon="11.44617">
        <ele>11794.55</ele>
        <time>2018-04-22T07:57:26Z</time>
      </trkpt>
      <trkpt lat="41.04417" lon="11.41949">
        <ele>11796.48</ele>
        <time>2018-04-22T07:57:44Z</time>
      </trkpt>
      <trkpt lat="41.07232" lon="11.39573">
        <ele>11797.44</ele>
        <time>2018-04-22T07:58:00Z</time>
      </trkpt>
      <trkpt lat="41.10929" lon="11.36453">
        <ele>11800.8</ele>
        <time>2018-04-22T07:58:21Z</time>
      </trkpt>
      <trkpt lat="41.13924" lon="11.33919">
        <ele>11803.69</ele>
        <time>2018-04-22T07:58:38Z</time>
      </trkpt>
      <trkpt lat="41.16922" lon="11.31375">
        <ele>11806.09</ele>
        <time>2018-04-22T07:58:55Z</time>
      </trkpt>
      <trkpt lat="41.20277" lon="11.28527">
        <ele>11808.01</ele>
        <time>2018-04-22T07:59:14Z</time>
      </trkpt>
      <trkpt lat="41.23816" lon="11.25526">
        <ele>11809.93</ele>
        <time>2018-04-22T07:59:34Z</time>
      </trkpt>
      <trkpt lat="41.27002" lon="11.22818">
        <ele>11811.38</ele>
        <time>2018-04-22T07:59:52Z</time>
      </trkpt>
      <trkpt lat="41.30544" lon="11.19802">
        <ele>11812.34</ele>
        <time>2018-04-22T08:00:12Z</time>
      </trkpt>
      <trkpt lat="41.34437" lon="11.16484">
        <ele>11816.18</ele>
        <time>2018-04-22T08:00:34Z</time>
      </trkpt>
      <trkpt lat="41.37807" lon="11.13601">
        <ele>11817.62</ele>
        <time>2018-04-22T08:00:53Z</time>
      </trkpt>
      <trkpt lat="41.41179" lon="11.1073">
        <ele>11816.18</ele>
        <time>2018-04-22T08:01:12Z</time>
      </trkpt>
      <trkpt lat="41.44205" lon="11.08153">
        <ele>11814.74</ele>
        <time>2018-04-22T08:01:29Z</time>
      </trkpt>
      <trkpt lat="41.47043" lon="11.05729">
        <ele>11814.74</ele>
        <time>2018-04-22T08:01:45Z</time>
      </trkpt>
      <trkpt lat="41.49528" lon="11.03608">
        <ele>11814.26</ele>
        <time>2018-04-22T08:01:59Z</time>
      </trkpt>
      <trkpt lat="41.52552" lon="11.0102">
        <ele>11812.82</ele>
        <time>2018-04-22T08:02:16Z</time>
      </trkpt>
      <trkpt lat="41.55743" lon="10.98278">
        <ele>11811.86</ele>
        <time>2018-04-22T08:02:34Z</time>
      </trkpt>
      <trkpt lat="41.58757" lon="10.9568">
        <ele>11810.41</ele>
        <time>2018-04-22T08:02:51Z</time>
      </trkpt>
      <trkpt lat="41.61948" lon="10.92932">
        <ele>11810.89</ele>
        <time>2018-04-22T08:03:09Z</time>
      </trkpt>
      <trkpt lat="41.65847" lon="10.89565">
        <ele>11813.3</ele>
        <time>2018-04-22T08:03:31Z</time>
      </trkpt>
      <trkpt lat="41.68683" lon="10.87115">
        <ele>11815.22</ele>
        <time>2018-04-22T08:03:47Z</time>
      </trkpt>
      <trkpt lat="41.71867" lon="10.84356">
        <ele>11816.66</ele>
        <time>2018-04-22T08:04:05Z</time>
      </trkpt>
      <trkpt lat="41.74871" lon="10.8175">
        <ele>11817.62</ele>
        <time>2018-04-22T08:04:22Z</time>
      </trkpt>
      <trkpt lat="41.78407" lon="10.78682">
        <ele>11819.07</ele>
        <time>2018-04-22T08:04:42Z</time>
      </trkpt>
      <trkpt lat="41.79632" lon="10.77582">
        <ele>11819.55</ele>
        <time>2018-04-22T08:04:49Z</time>
      </trkpt>
      <trkpt lat="41.80648" lon="10.76564">
        <ele>11821.47</ele>
        <time>2018-04-22T08:04:55Z</time>
      </trkpt>
      <trkpt lat="41.81621" lon="10.75475">
        <ele>11824.83</ele>
        <time>2018-04-22T08:05:01Z</time>
      </trkpt>
      <trkpt lat="41.82549" lon="10.74336">
        <ele>11828.2</ele>
        <time>2018-04-22T08:05:07Z</time>
      </trkpt>
      <trkpt lat="41.83451" lon="10.73136">
        <ele>11832.04</ele>
        <time>2018-04-22T08:05:13Z</time>
      </trkpt>
      <trkpt lat="41.84315" lon="10.71887">
        <ele>11834.93</ele>
        <time>2018-04-22T08:05:19Z</time>
      </trkpt>
      <trkpt lat="41.85146" lon="10.70599">
        <ele>11837.81</ele>
        <time>2018-04-22T08:05:25Z</time>
      </trkpt>
      <trkpt lat="41.86077" lon="10.69052">
        <ele>11841.66</ele>
        <time>2018-04-22T08:05:32Z</time>
      </trkpt>
      <trkpt lat="41.87097" lon="10.67237">
        <ele>11846.46</ele>
        <time>2018-04-22T08:05:40Z</time>
      </trkpt>
      <trkpt lat="41.89265" lon="10.63379">
        <ele>11857.04</ele>
        <time>2018-04-22T08:05:57Z</time>
      </trkpt>
      <trkpt lat="41.92322" lon="10.57936">
        <ele>11864.25</ele>
        <time>2018-04-22T08:06:21Z</time>
      </trkpt>
      <trkpt lat="41.96013" lon="10.51366">
        <ele>11868.57</ele>
        <time>2018-04-22T08:06:50Z</time>
      </trkpt>
      <trkpt lat="41.98284" lon="10.47279">
        <ele>11870.98</ele>
        <time>2018-04-22T08:07:08Z</time>
      </trkpt>
      <trkpt lat="42.0068" lon="10.42966">
        <ele>11873.38</ele>
        <time>2018-04-22T08:07:27Z</time>
      </trkpt>
      <trkpt lat="42.03581" lon="10.3774">
        <ele>11876.75</ele>
        <time>2018-04-22T08:07:50Z</time>
      </trkpt>
      <trkpt lat="42.07224" lon="10.31142">
        <ele>11882.99</ele>
        <time>2018-04-22T08:08:19Z</time>
      </trkpt>
      <trkpt lat="42.09587" lon="10.26813">
        <ele>11883.47</ele>
        <time>2018-04-22T08:08:38Z</time>
      </trkpt>
      <trkpt lat="42.11716" lon="10.22944">
        <ele>11885.4</ele>
        <time>2018-04-22T08:08:55Z</time>
      </trkpt>
      <trkpt lat="42.1347" lon="10.19761">
        <ele>11888.28</ele>
        <time>2018-04-22T08:09:09Z</time>
      </trkpt>
      <trkpt lat="42.15217" lon="10.16573">
        <ele>11890.2</ele>
        <time>2018-04-22T08:09:23Z</time>
      </trkpt>
      <trkpt lat="42.17721" lon="10.12029">
        <ele>11890.68</ele>
        <time>2018-04-22T08:09:43Z</time>
      </trkpt>
      <trkpt lat="42.1972" lon="10.08394">
        <ele>11890.68</ele>
        <time>2018-04-22T08:09:59Z</time>
      </trkpt>
      <trkpt lat="42.21463" lon="10.05202">
        <ele>11887.32</ele>
        <time>2018-04-22T08:10:13Z</time>
      </trkpt>
      <trkpt lat="42.22956" lon="10.02473">
        <ele>11884.44</ele>
        <time>2018-04-22T08:10:25Z</time>
      </trkpt>
      <trkpt lat="42.24831" lon="9.99064">
        <ele>11882.51</ele>
        <time>2018-04-22T08:10:40Z</time>
      </trkpt>
      <trkpt lat="42.26578" lon="9.95888">
        <ele>11883.96</ele>
        <time>2018-04-22T08:10:54Z</time>
      </trkpt>
      <trkpt lat="42.30296" lon="9.89068">
        <ele>11890.68</ele>
        <time>2018-04-22T08:11:24Z</time>
      </trkpt>
      <trkpt lat="42.32156" lon="9.85655">
        <ele>11886.84</ele>
        <time>2018-04-22T08:11:39Z</time>
      </trkpt>
      <trkpt lat="42.34139" lon="9.8202">
        <ele>11884.44</ele>
        <time>2018-04-22T08:11:55Z</time>
      </trkpt>
      <trkpt lat="42.36114" lon="9.78382">
        <ele>11882.99</ele>
        <time>2018-04-22T08:12:11Z</time>
      </trkpt>
      <trkpt lat="42.3832" lon="9.74315">
        <ele>11885.88</ele>
        <time>2018-04-22T08:12:29Z</time>
      </trkpt>
      <trkpt lat="42.40288" lon="9.7068">
        <ele>11888.28</ele>
        <time>2018-04-22T08:12:45Z</time>
      </trkpt>
      <trkpt lat="42.42514" lon="9.66566">
        <ele>11879.15</ele>
        <time>2018-04-22T08:13:03Z</time>
      </trkpt>
      <trkpt lat="42.44106" lon="9.63606">
        <ele>11874.82</ele>
        <time>2018-04-22T08:13:16Z</time>
      </trkpt>
      <trkpt lat="42.4582" lon="9.60417">
        <ele>11870.98</ele>
        <time>2018-04-22T08:13:30Z</time>
      </trkpt>
      <trkpt lat="42.48517" lon="9.554">
        <ele>11866.65</ele>
        <time>2018-04-22T08:13:52Z</time>
      </trkpt>
      <trkpt lat="42.50973" lon="9.50859">
        <ele>11863.29</ele>
        <time>2018-04-22T08:14:12Z</time>
      </trkpt>
      <trkpt lat="42.52947" lon="9.4722">
        <ele>11861.36</ele>
        <time>2018-04-22T08:14:28Z</time>
      </trkpt>
      <trkpt lat="42.54657" lon="9.44029">
        <ele>11861.84</ele>
        <time>2018-04-22T08:14:42Z</time>
      </trkpt>
      <trkpt lat="42.5662" lon="9.40383">
        <ele>11865.21</ele>
        <time>2018-04-22T08:14:58Z</time>
      </trkpt>
      <trkpt lat="42.59077" lon="9.35817">
        <ele>11870.02</ele>
        <time>2018-04-22T08:15:18Z</time>
      </trkpt>
      <trkpt lat="42.61165" lon="9.31922">
        <ele>11871.46</ele>
        <time>2018-04-22T08:15:35Z</time>
      </trkpt>
      <trkpt lat="42.63501" lon="9.27565">
        <ele>11874.82</ele>
        <time>2018-04-22T08:15:54Z</time>
      </trkpt>
      <trkpt lat="42.65958" lon="9.22965">
        <ele>11882.03</ele>
        <time>2018-04-22T08:16:14Z</time>
      </trkpt>
      <trkpt lat="42.67802" lon="9.19512">
        <ele>11886.36</ele>
        <time>2018-04-22T08:16:29Z</time>
      </trkpt>
      <trkpt lat="42.69522" lon="9.16275">
        <ele>11889.24</ele>
        <time>2018-04-22T08:16:43Z</time>
      </trkpt>
      <trkpt lat="42.71126" lon="9.13269">
        <ele>11892.13</ele>
        <time>2018-04-22T08:16:56Z</time>
      </trkpt>
      <trkpt lat="42.72969" lon="9.09799">
        <ele>11891.17</ele>
        <time>2018-04-22T08:17:11Z</time>
      </trkpt>
      <trkpt lat="42.7482" lon="9.06322">
        <ele>11893.57</ele>
        <time>2018-04-22T08:17:26Z</time>
      </trkpt>
      <trkpt lat="42.76923" lon="9.02375">
        <ele>11894.53</ele>
        <time>2018-04-22T08:17:43Z</time>
      </trkpt>
      <trkpt lat="42.78889" lon="8.9865">
        <ele>11896.93</ele>
        <time>2018-04-22T08:17:59Z</time>
      </trkpt>
      <trkpt lat="42.80735" lon="8.95156">
        <ele>11892.61</ele>
        <time>2018-04-22T08:18:14Z</time>
      </trkpt>
      <trkpt lat="42.82956" lon="8.9096">
        <ele>11894.05</ele>
        <time>2018-04-22T08:18:32Z</time>
      </trkpt>
      <trkpt lat="42.84682" lon="8.87692">
        <ele>11896.45</ele>
        <time>2018-04-22T08:18:46Z</time>
      </trkpt>
      <trkpt lat="42.86402" lon="8.84423">
        <ele>11907.03</ele>
        <time>2018-04-22T08:19:00Z</time>
      </trkpt>
      <trkpt lat="42.88371" lon="8.80691">
        <ele>11914.72</ele>
        <time>2018-04-22T08:19:16Z</time>
      </trkpt>
      <trkpt lat="42.90098" lon="8.77439">
        <ele>11920</ele>
        <time>2018-04-22T08:19:30Z</time>
      </trkpt>
      <trkpt lat="42.92312" lon="8.73237">
        <ele>11922.41</ele>
        <time>2018-04-22T08:19:48Z</time>
      </trkpt>
      <trkpt lat="42.94651" lon="8.68772">
        <ele>11920</ele>
        <time>2018-04-22T08:20:07Z</time>
      </trkpt>
      <trkpt lat="42.96495" lon="8.6525">
        <ele>11921.93</ele>
        <time>2018-04-22T08:20:22Z</time>
      </trkpt>
      <trkpt lat="42.98579" lon="8.61252">
        <ele>11927.7</ele>
        <time>2018-04-22T08:20:39Z</time>
      </trkpt>
      <trkpt lat="43.01032" lon="8.56549">
        <ele>11936.35</ele>
        <time>2018-04-22T08:20:59Z</time>
      </trkpt>
      <trkpt lat="43.03602" lon="8.51614">
        <ele>11951.73</ele>
        <time>2018-04-22T08:21:20Z</time>
      </trkpt>
      <trkpt lat="43.0581" lon="8.47365">
        <ele>11950.29</ele>
        <time>2018-04-22T08:21:38Z</time>
      </trkpt>
      <trkpt lat="43.07899" lon="8.43366">
        <ele>11939.71</ele>
        <time>2018-04-22T08:21:55Z</time>
      </trkpt>
      <trkpt lat="43.10217" lon="8.3891">
        <ele>11935.87</ele>
        <time>2018-04-22T08:22:14Z</time>
      </trkpt>
      <trkpt lat="43.12162" lon="8.35154">
        <ele>11933.46</ele>
        <time>2018-04-22T08:22:30Z</time>
      </trkpt>
      <trkpt lat="43.1399" lon="8.31641">
        <ele>11925.77</ele>
        <time>2018-04-22T08:22:45Z</time>
      </trkpt>
      <trkpt lat="43.15806" lon="8.28133">
        <ele>11930.1</ele>
        <time>2018-04-22T08:23:00Z</time>
      </trkpt>
      <trkpt lat="43.17863" lon="8.2416">
        <ele>11928.18</ele>
        <time>2018-04-22T08:23:17Z</time>
      </trkpt>
      <trkpt lat="43.20037" lon="8.19954">
        <ele>11925.29</ele>
        <time>2018-04-22T08:23:35Z</time>
      </trkpt>
      <trkpt lat="43.21964" lon="8.16215">
        <ele>11912.31</ele>
        <time>2018-04-22T08:23:51Z</time>
      </trkpt>
      <trkpt lat="43.24009" lon="8.12251">
        <ele>11908.47</ele>
        <time>2018-04-22T08:24:08Z</time>
      </trkpt>
      <trkpt lat="43.25232" lon="8.09941">
        <ele>11912.79</ele>
        <time>2018-04-22T08:24:18Z</time>
      </trkpt>
      <trkpt lat="43.26009" lon="8.08597">
        <ele>11916.64</ele>
        <time>2018-04-22T08:24:24Z</time>
      </trkpt>
      <trkpt lat="43.26923" lon="8.074">
        <ele>11917.12</ele>
        <time>2018-04-22T08:24:30Z</time>
      </trkpt>
      <trkpt lat="43.27554" lon="8.06619">
        <ele>11916.64</ele>
        <time>2018-04-22T08:24:34Z</time>
      </trkpt>
      <trkpt lat="43.28501" lon="8.05477">
        <ele>11917.12</ele>
        <time>2018-04-22T08:24:40Z</time>
      </trkpt>
      <trkpt lat="43.29463" lon="8.04401">
        <ele>11917.6</ele>
        <time>2018-04-22T08:24:46Z</time>
      </trkpt>
      <trkpt lat="43.3046" lon="8.03397">
        <ele>11919.04</ele>
        <time>2018-04-22T08:24:52Z</time>
      </trkpt>
      <trkpt lat="43.31695" lon="8.02288">
        <ele>11920.97</ele>
        <time>2018-04-22T08:24:59Z</time>
      </trkpt>
      <trkpt lat="43.33805" lon="8.00396">
        <ele>11921.93</ele>
        <time>2018-04-22T08:25:11Z</time>
      </trkpt>
      <trkpt lat="43.36576" lon="7.97845">
        <ele>11924.81</ele>
        <time>2018-04-22T08:25:27Z</time>
      </trkpt>
      <trkpt lat="43.38635" lon="7.95932">
        <ele>11930.1</ele>
        <time>2018-04-22T08:25:39Z</time>
      </trkpt>
      <trkpt lat="43.41095" lon="7.93675">
        <ele>11926.25</ele>
        <time>2018-04-22T08:25:53Z</time>
      </trkpt>
      <trkpt lat="43.43361" lon="7.91581">
        <ele>11928.66</ele>
        <time>2018-04-22T08:26:06Z</time>
      </trkpt>
      <trkpt lat="43.45798" lon="7.89347">
        <ele>11936.83</ele>
        <time>2018-04-22T08:26:20Z</time>
      </trkpt>
      <trkpt lat="43.47744" lon="7.87594">
        <ele>11943.08</ele>
        <time>2018-04-22T08:26:31Z</time>
      </trkpt>
      <trkpt lat="43.49316" lon="7.86146">
        <ele>11947.4</ele>
        <time>2018-04-22T08:26:40Z</time>
      </trkpt>
      <trkpt lat="43.51586" lon="7.8406">
        <ele>11955.57</ele>
        <time>2018-04-22T08:26:53Z</time>
      </trkpt>
      <trkpt lat="43.53849" lon="7.81974">
        <ele>11961.82</ele>
        <time>2018-04-22T08:27:06Z</time>
      </trkpt>
      <trkpt lat="43.56103" lon="7.79888">
        <ele>11968.55</ele>
        <time>2018-04-22T08:27:19Z</time>
      </trkpt>
      <trkpt lat="43.58007" lon="7.78114">
        <ele>11962.3</ele>
        <time>2018-04-22T08:27:30Z</time>
      </trkpt>
      <trkpt lat="43.60458" lon="7.75863">
        <ele>11954.13</ele>
        <time>2018-04-22T08:27:44Z</time>
      </trkpt>
      <trkpt lat="43.63255" lon="7.73275">
        <ele>11954.13</ele>
        <time>2018-04-22T08:28:00Z</time>
      </trkpt>
      <trkpt lat="43.66047" lon="7.7071">
        <ele>11962.78</ele>
        <time>2018-04-22T08:28:16Z</time>
      </trkpt>
      <trkpt lat="43.68143" lon="7.68777">
        <ele>11967.59</ele>
        <time>2018-04-22T08:28:28Z</time>
      </trkpt>
      <trkpt lat="43.70593" lon="7.6651">
        <ele>11968.55</ele>
        <time>2018-04-22T08:28:42Z</time>
      </trkpt>
      <trkpt lat="43.73042" lon="7.64248">
        <ele>11973.84</ele>
        <time>2018-04-22T08:28:56Z</time>
      </trkpt>
      <trkpt lat="43.7568" lon="7.61814">
        <ele>11981.05</ele>
        <time>2018-04-22T08:29:11Z</time>
      </trkpt>
      <trkpt lat="43.77965" lon="7.59702">
        <ele>11984.89</ele>
        <time>2018-04-22T08:29:24Z</time>
      </trkpt>
      <trkpt lat="43.80403" lon="7.57417">
        <ele>11988.74</ele>
        <time>2018-04-22T08:29:38Z</time>
      </trkpt>
      <trkpt lat="43.82854" lon="7.55134">
        <ele>11994.51</ele>
        <time>2018-04-22T08:29:52Z</time>
      </trkpt>
      <trkpt lat="43.85647" lon="7.52537">
        <ele>12004.12</ele>
        <time>2018-04-22T08:30:08Z</time>
      </trkpt>
      <trkpt lat="43.88256" lon="7.50093">
        <ele>12014.21</ele>
        <time>2018-04-22T08:30:23Z</time>
      </trkpt>
      <trkpt lat="43.90878" lon="7.47628">
        <ele>12021.42</ele>
        <time>2018-04-22T08:30:38Z</time>
      </trkpt>
      <trkpt lat="43.93841" lon="7.44821">
        <ele>12029.59</ele>
        <time>2018-04-22T08:30:55Z</time>
      </trkpt>
      <trkpt lat="43.96448" lon="7.42352">
        <ele>12031.52</ele>
        <time>2018-04-22T08:31:10Z</time>
      </trkpt>
      <trkpt lat="43.99227" lon="7.39738">
        <ele>12037.77</ele>
        <time>2018-04-22T08:31:26Z</time>
      </trkpt>
      <trkpt lat="44.01517" lon="7.37608">
        <ele>12042.57</ele>
        <time>2018-04-22T08:31:39Z</time>
      </trkpt>
      <trkpt lat="44.04678" lon="7.34661">
        <ele>12053.63</ele>
        <time>2018-04-22T08:31:57Z</time>
      </trkpt>
      <trkpt lat="44.0754" lon="7.31967">
        <ele>12052.19</ele>
        <time>2018-04-22T08:32:13Z</time>
      </trkpt>
      <trkpt lat="44.10008" lon="7.29655">
        <ele>12057.47</ele>
        <time>2018-04-22T08:32:27Z</time>
      </trkpt>
      <trkpt lat="44.12114" lon="7.27678">
        <ele>12062.28</ele>
        <time>2018-04-22T08:32:39Z</time>
      </trkpt>
      <trkpt lat="44.14384" lon="7.2551">
        <ele>12056.51</ele>
        <time>2018-04-22T08:32:52Z</time>
      </trkpt>
      <trkpt lat="44.1738" lon="7.22634">
        <ele>12033.92</ele>
        <time>2018-04-22T08:33:09Z</time>
      </trkpt>
      <trkpt lat="44.20707" lon="7.19463">
        <ele>12019.98</ele>
        <time>2018-04-22T08:33:28Z</time>
      </trkpt>
      <trkpt lat="44.24025" lon="7.16317">
        <ele>12008.45</ele>
        <time>2018-04-22T08:33:47Z</time>
      </trkpt>
      <trkpt lat="44.27001" lon="7.135">
        <ele>12003.16</ele>
        <time>2018-04-22T08:34:04Z</time>
      </trkpt>
      <trkpt lat="44.31744" lon="7.08976">
        <ele>11981.05</ele>
        <time>2018-04-22T08:34:31Z</time>
      </trkpt>
      <trkpt lat="44.35959" lon="7.04952">
        <ele>11962.3</ele>
        <time>2018-04-22T08:34:55Z</time>
      </trkpt>
      <trkpt lat="44.40159" lon="7.00927">
        <ele>11957.01</ele>
        <time>2018-04-22T08:35:19Z</time>
      </trkpt>
      <trkpt lat="44.44182" lon="6.97077">
        <ele>11961.82</ele>
        <time>2018-04-22T08:35:42Z</time>
      </trkpt>
      <trkpt lat="44.47493" lon="6.93893">
        <ele>11966.15</ele>
        <time>2018-04-22T08:36:01Z</time>
      </trkpt>
      <trkpt lat="44.50471" lon="6.91064">
        <ele>11968.55</ele>
        <time>2018-04-22T08:36:18Z</time>
      </trkpt>
      <trkpt lat="44.53277" lon="6.88402">
        <ele>11977.2</ele>
        <time>2018-04-22T08:36:34Z</time>
      </trkpt>
      <trkpt lat="44.55725" lon="6.86078">
        <ele>11988.26</ele>
        <time>2018-04-22T08:36:48Z</time>
      </trkpt>
      <trkpt lat="44.58528" lon="6.83272">
        <ele>11945</ele>
        <time>2018-04-22T08:37:04Z</time>
      </trkpt>
      <trkpt lat="44.62207" lon="6.79669">
        <ele>11925.29</ele>
        <time>2018-04-22T08:37:25Z</time>
      </trkpt>
      <trkpt lat="44.66057" lon="6.75929">
        <ele>11917.12</ele>
        <time>2018-04-22T08:37:47Z</time>
      </trkpt>
      <trkpt lat="44.69562" lon="6.72532">
        <ele>11913.76</ele>
        <time>2018-04-22T08:38:07Z</time>
      </trkpt>
      <trkpt lat="44.74118" lon="6.68122">
        <ele>11909.43</ele>
        <time>2018-04-22T08:38:33Z</time>
      </trkpt>
      <trkpt lat="44.77987" lon="6.64353">
        <ele>11901.74</ele>
        <time>2018-04-22T08:38:55Z</time>
      </trkpt>
      <trkpt lat="44.80967" lon="6.61448">
        <ele>11900.78</ele>
        <time>2018-04-22T08:39:12Z</time>
      </trkpt>
      <trkpt lat="44.85175" lon="6.57351">
        <ele>11899.82</ele>
        <time>2018-04-22T08:39:36Z</time>
      </trkpt>
      <trkpt lat="44.89929" lon="6.52707">
        <ele>11894.53</ele>
        <time>2018-04-22T08:40:03Z</time>
      </trkpt>
      <trkpt lat="44.9311" lon="6.49588">
        <ele>11884.44</ele>
        <time>2018-04-22T08:40:21Z</time>
      </trkpt>
      <trkpt lat="44.97162" lon="6.45595">
        <ele>11870.02</ele>
        <time>2018-04-22T08:40:44Z</time>
      </trkpt>
      <trkpt lat="45.00676" lon="6.42131">
        <ele>11867.13</ele>
        <time>2018-04-22T08:41:04Z</time>
      </trkpt>
      <trkpt lat="45.03147" lon="6.39696">
        <ele>11870.02</ele>
        <time>2018-04-22T08:41:18Z</time>
      </trkpt>
      <trkpt lat="45.05776" lon="6.37111">
        <ele>11874.82</ele>
        <time>2018-04-22T08:41:33Z</time>
      </trkpt>
      <trkpt lat="45.08577" lon="6.34357">
        <ele>11883.96</ele>
        <time>2018-04-22T08:41:49Z</time>
      </trkpt>
      <trkpt lat="45.15817" lon="6.27212">
        <ele>11890.2</ele>
        <time>2018-04-22T08:42:30Z</time>
      </trkpt>
      <trkpt lat="45.18986" lon="6.24066">
        <ele>11891.65</ele>
        <time>2018-04-22T08:42:48Z</time>
      </trkpt>
      <trkpt lat="45.21446" lon="6.21622">
        <ele>11892.13</ele>
        <time>2018-04-22T08:43:02Z</time>
      </trkpt>
      <trkpt lat="45.25317" lon="6.17756">
        <ele>11904.62</ele>
        <time>2018-04-22T08:43:24Z</time>
      </trkpt>
      <trkpt lat="45.30948" lon="6.12138">
        <ele>11924.81</ele>
        <time>2018-04-22T08:43:56Z</time>
      </trkpt>
      <trkpt lat="45.36054" lon="6.07104">
        <ele>11906.55</ele>
        <time>2018-04-22T08:44:25Z</time>
      </trkpt>
      <trkpt lat="45.41017" lon="6.02154">
        <ele>11854.15</ele>
        <time>2018-04-22T08:44:53Z</time>
      </trkpt>
      <trkpt lat="45.45763" lon="5.97378">
        <ele>11845.5</ele>
        <time>2018-04-22T08:45:20Z</time>
      </trkpt>
      <trkpt lat="45.51566" lon="5.91539">
        <ele>11848.87</ele>
        <time>2018-04-22T08:45:53Z</time>
      </trkpt>
      <trkpt lat="45.55613" lon="5.87457">
        <ele>11850.31</ele>
        <time>2018-04-22T08:46:16Z</time>
      </trkpt>
      <trkpt lat="45.59486" lon="5.83545">
        <ele>11863.29</ele>
        <time>2018-04-22T08:46:38Z</time>
      </trkpt>
      <trkpt lat="45.63544" lon="5.79453">
        <ele>11870.02</ele>
        <time>2018-04-22T08:47:01Z</time>
      </trkpt>
      <trkpt lat="45.67411" lon="5.75533">
        <ele>11881.07</ele>
        <time>2018-04-22T08:47:23Z</time>
      </trkpt>
      <trkpt lat="45.70559" lon="5.72334">
        <ele>11886.84</ele>
        <time>2018-04-22T08:47:41Z</time>
      </trkpt>
      <trkpt lat="45.73526" lon="5.69325">
        <ele>11888.76</ele>
        <time>2018-04-22T08:47:58Z</time>
      </trkpt>
      <trkpt lat="45.76665" lon="5.66147">
        <ele>11891.65</ele>
        <time>2018-04-22T08:48:16Z</time>
      </trkpt>
      <trkpt lat="45.80856" lon="5.6189">
        <ele>11892.13</ele>
        <time>2018-04-22T08:48:40Z</time>
      </trkpt>
      <trkpt lat="45.84003" lon="5.58679">
        <ele>11895.97</ele>
        <time>2018-04-22T08:48:58Z</time>
      </trkpt>
      <trkpt lat="45.87495" lon="5.55116">
        <ele>11899.34</ele>
        <time>2018-04-22T08:49:18Z</time>
      </trkpt>
      <trkpt lat="45.9099" lon="5.51538">
        <ele>11902.7</ele>
        <time>2018-04-22T08:49:38Z</time>
      </trkpt>
      <trkpt lat="45.94839" lon="5.47596">
        <ele>11914.24</ele>
        <time>2018-04-22T08:50:00Z</time>
      </trkpt>
      <trkpt lat="45.98145" lon="5.44198">
        <ele>11926.25</ele>
        <time>2018-04-22T08:50:19Z</time>
      </trkpt>
      <trkpt lat="46.01095" lon="5.41171">
        <ele>11930.1</ele>
        <time>2018-04-22T08:50:36Z</time>
      </trkpt>
      <trkpt lat="46.04057" lon="5.38116">
        <ele>11930.58</ele>
        <time>2018-04-22T08:50:53Z</time>
      </trkpt>
      <trkpt lat="46.06676" lon="5.35418">
        <ele>11932.02</ele>
        <time>2018-04-22T08:51:08Z</time>
      </trkpt>
      <trkpt lat="46.09455" lon="5.32545">
        <ele>11930.1</ele>
        <time>2018-04-22T08:51:24Z</time>
      </trkpt>
      <trkpt lat="46.1206" lon="5.29837">
        <ele>11928.66</ele>
        <time>2018-04-22T08:51:39Z</time>
      </trkpt>
      <trkpt lat="46.15865" lon="5.25898">
        <ele>11940.19</ele>
        <time>2018-04-22T08:52:01Z</time>
      </trkpt>
      <trkpt lat="46.2035" lon="5.21274">
        <ele>11959.42</ele>
        <time>2018-04-22T08:52:27Z</time>
      </trkpt>
      <trkpt lat="46.2413" lon="5.1736">
        <ele>11953.17</ele>
        <time>2018-04-22T08:52:49Z</time>
      </trkpt>
      <trkpt lat="46.27579" lon="5.13792">
        <ele>11947.4</ele>
        <time>2018-04-22T08:53:09Z</time>
      </trkpt>
      <trkpt lat="46.31539" lon="5.09677">
        <ele>11927.7</ele>
        <time>2018-04-22T08:53:32Z</time>
      </trkpt>
      <trkpt lat="46.3429" lon="5.06813">
        <ele>11917.12</ele>
        <time>2018-04-22T08:53:48Z</time>
      </trkpt>
      <trkpt lat="46.3721" lon="5.03762">
        <ele>11904.14</ele>
        <time>2018-04-22T08:54:05Z</time>
      </trkpt>
      <trkpt lat="46.39948" lon="5.00897">
        <ele>11893.09</ele>
        <time>2018-04-22T08:54:21Z</time>
      </trkpt>
      <trkpt lat="46.43716" lon="4.96964">
        <ele>11889.24</ele>
        <time>2018-04-22T08:54:43Z</time>
      </trkpt>
      <trkpt lat="46.47649" lon="4.92824">
        <ele>11885.88</ele>
        <time>2018-04-22T08:55:06Z</time>
      </trkpt>
      <trkpt lat="46.51405" lon="4.88893">
        <ele>11897.41</ele>
        <time>2018-04-22T08:55:28Z</time>
      </trkpt>
      <trkpt lat="46.54297" lon="4.85838">
        <ele>11899.82</ele>
        <time>2018-04-22T08:55:45Z</time>
      </trkpt>
      <trkpt lat="46.57189" lon="4.82765">
        <ele>11896.93</ele>
        <time>2018-04-22T08:56:02Z</time>
      </trkpt>
      <trkpt lat="46.60937" lon="4.78812">
        <ele>11886.84</ele>
        <time>2018-04-22T08:56:24Z</time>
      </trkpt>
      <trkpt lat="46.64344" lon="4.75235">
        <ele>11888.28</ele>
        <time>2018-04-22T08:56:44Z</time>
      </trkpt>
      <trkpt lat="46.67745" lon="4.71673">
        <ele>11898.38</ele>
        <time>2018-04-22T08:57:04Z</time>
      </trkpt>
      <trkpt lat="46.70297" lon="4.69012">
        <ele>11906.07</ele>
        <time>2018-04-22T08:57:19Z</time>
      </trkpt>
      <trkpt lat="46.72321" lon="4.66817">
        <ele>11906.07</ele>
        <time>2018-04-22T08:57:31Z</time>
      </trkpt>
      <trkpt lat="46.73358" lon="4.65749">
        <ele>11905.1</ele>
        <time>2018-04-22T08:57:37Z</time>
      </trkpt>
      <trkpt lat="46.74425" lon="4.64761">
        <ele>11905.1</ele>
        <time>2018-04-22T08:57:43Z</time>
      </trkpt>
      <trkpt lat="46.75518" lon="4.6383">
        <ele>11905.1</ele>
        <time>2018-04-22T08:57:49Z</time>
      </trkpt>
      <trkpt lat="46.76821" lon="4.62824">
        <ele>11900.3</ele>
        <time>2018-04-22T08:57:56Z</time>
      </trkpt>
      <trkpt lat="46.78155" lon="4.61887">
        <ele>11883.96</ele>
        <time>2018-04-22T08:58:03Z</time>
      </trkpt>
      <trkpt lat="46.79534" lon="4.60989">
        <ele>11869.05</ele>
        <time>2018-04-22T08:58:10Z</time>
      </trkpt>
      <trkpt lat="46.83065" lon="4.58685">
        <ele>11842.14</ele>
        <time>2018-04-22T08:58:28Z</time>
      </trkpt>
      <trkpt lat="46.88911" lon="4.54861">
        <ele>11836.85</ele>
        <time>2018-04-22T08:58:58Z</time>
      </trkpt>
      <trkpt lat="46.93781" lon="4.51672">
        <ele>11829.16</ele>
        <time>2018-04-22T08:59:23Z</time>
      </trkpt>
      <trkpt lat="46.94923" lon="4.50845">
        <ele>11825.79</ele>
        <time>2018-04-22T08:59:29Z</time>
      </trkpt>
      <trkpt lat="46.96024" lon="4.49969">
        <ele>11824.83</ele>
        <time>2018-04-22T08:59:35Z</time>
      </trkpt>
      <trkpt lat="46.97101" lon="4.49044">
        <ele>11825.31</ele>
        <time>2018-04-22T08:59:41Z</time>
      </trkpt>
      <trkpt lat="46.98141" lon="4.48036">
        <ele>11823.87</ele>
        <time>2018-04-22T08:59:47Z</time>
      </trkpt>
      <trkpt lat="46.99518" lon="4.46609">
        <ele>11825.79</ele>
        <time>2018-04-22T08:59:55Z</time>
      </trkpt>
      <trkpt lat="47.01921" lon="4.441">
        <ele>11826.28</ele>
        <time>2018-04-22T09:00:09Z</time>
      </trkpt>
      <trkpt lat="47.04654" lon="4.4128">
        <ele>11820.03</ele>
        <time>2018-04-22T09:00:25Z</time>
      </trkpt>
      <trkpt lat="47.06862" lon="4.39029">
        <ele>11807.05</ele>
        <time>2018-04-22T09:00:38Z</time>
      </trkpt>
      <trkpt lat="47.10438" lon="4.35382">
        <ele>11749.37</ele>
        <time>2018-04-22T09:00:59Z</time>
      </trkpt>
      <trkpt lat="47.14017" lon="4.31744">
        <ele>11659.49</ele>
        <time>2018-04-22T09:01:20Z</time>
      </trkpt>
      <trkpt lat="47.16907" lon="4.28828">
        <ele>11577.78</ele>
        <time>2018-04-22T09:01:37Z</time>
      </trkpt>
      <trkpt lat="47.18749" lon="4.2695">
        <ele>11519.13</ele>
        <time>2018-04-22T09:01:48Z</time>
      </trkpt>
      <trkpt lat="47.20591" lon="4.25068">
        <ele>11464.34</ele>
        <time>2018-04-22T09:01:59Z</time>
      </trkpt>
      <trkpt lat="47.21904" lon="4.23727">
        <ele>11421.56</ele>
        <time>2018-04-22T09:02:07Z</time>
      </trkpt>
      <trkpt lat="47.23702" lon="4.2189">
        <ele>11356.19</ele>
        <time>2018-04-22T09:02:18Z</time>
      </trkpt>
      <trkpt lat="47.25687" lon="4.19839">
        <ele>11272.08</ele>
        <time>2018-04-22T09:02:30Z</time>
      </trkpt>
      <trkpt lat="47.27724" lon="4.17709">
        <ele>11190.84</ele>
        <time>2018-04-22T09:02:42Z</time>
      </trkpt>
      <trkpt lat="47.30309" lon="4.15019">
        <ele>11104.81</ele>
        <time>2018-04-22T09:02:57Z</time>
      </trkpt>
      <trkpt lat="47.31824" lon="4.13447">
        <ele>11054.82</ele>
        <time>2018-04-22T09:03:06Z</time>
      </trkpt>
      <trkpt lat="47.33646" lon="4.11555">
        <ele>10976.95</ele>
        <time>2018-04-22T09:03:17Z</time>
      </trkpt>
      <trkpt lat="47.35186" lon="4.0993">
        <ele>10941.38</ele>
        <time>2018-04-22T09:03:26Z</time>
      </trkpt>
      <trkpt lat="47.37073" lon="4.07958">
        <ele>10889.95</ele>
        <time>2018-04-22T09:03:37Z</time>
      </trkpt>
      <trkpt lat="47.38746" lon="4.06206">
        <ele>10849.58</ele>
        <time>2018-04-22T09:03:47Z</time>
      </trkpt>
      <trkpt lat="47.40719" lon="4.04178">
        <ele>10797.67</ele>
        <time>2018-04-22T09:03:59Z</time>
      </trkpt>
      <trkpt lat="47.42982" lon="4.01866">
        <ele>10741.43</ele>
        <time>2018-04-22T09:04:13Z</time>
      </trkpt>
      <trkpt lat="47.44122" lon="4.00689">
        <ele>10711.15</ele>
        <time>2018-04-22T09:04:20Z</time>
      </trkpt>
      <trkpt lat="47.46243" lon="3.98487">
        <ele>10638.09</ele>
        <time>2018-04-22T09:04:33Z</time>
      </trkpt>
      <trkpt lat="47.485" lon="3.96108">
        <ele>10587.62</ele>
        <time>2018-04-22T09:04:47Z</time>
      </trkpt>
      <trkpt lat="47.50265" lon="3.94184">
        <ele>10593.39</ele>
        <time>2018-04-22T09:04:58Z</time>
      </trkpt>
      <trkpt lat="47.51375" lon="3.92988">
        <ele>10593.87</ele>
        <time>2018-04-22T09:05:05Z</time>
      </trkpt>
    </trkseg>
  </trk>
</gpx>